Milford Haven, United Kingdom
Current Conditions -  °F | °C
As of 9:50 PM on Friday 28 Nov 2014 (Local Time) from EGOP Reporting Station
Few Clouds Few Clouds  
Wind Chill: 11°   Ceiling: Unl
Heat Index: 11°   Visibility: 6mi
Dew Point:   Wind: 8mph
Humidity: 88%   Direction: 60°ENE
Pressure: 29.65"   Gusts: NA
Location:  51.71°N, 5.03°W
Report Text: EGOP 282150Z AUTO 06007KT 9999 // FEW200/// 11/09 Q1004
Loading
Personal Weather Stations






























Interactive Weather Map New forecast layout! Learn more

10-Day Weather Forecast

Advertisements
Track Severe Weather on mobile